Time;durP1;ratioP1;P1;durP2;ratioP2;P2;SDS_P1;SDS_P2;PMS_P1;PMS_P2;Temp;Humidity;BMP_temperature;BMP_pressure;BME280_temperature;BME280_humidity;BME280_pressure;Samples;Min_cycle;Max_cycle;Signal;HPM_P1;HPM_P2
2022/05/25 00:01:00;;;;;;;9.57;6.47;;;21.90;99.90;;;;;;5039473;28;20073;-50
2022/05/25 00:03:27;;;;;;;8.23;6.60;;;21.90;99.90;;;;;;5037281;28;20100;-51
2022/05/25 00:05:54;;;;;;;9.65;7.85;;;21.90;99.90;;;;;;5046774;28;20595;-50
2022/05/25 00:08:21;;;;;;;17.50;8.63;;;21.90;99.90;;;;;;5047705;28;20041;-50
2022/05/25 00:10:46;;;;;;;16.50;7.95;;;21.80;99.90;;;;;;5061701;28;20045;-50
2022/05/25 00:13:12;;;;;;;11.70;7.10;;;21.70;99.90;;;;;;5047714;28;20035;-51
2022/05/25 00:15:38;;;;;;;12.02;7.85;;;;;;;;;;5040528;28;20063;-51
2022/05/25 00:18:05;;;;;;;13.30;8.48;;;;;;;;;;5049939;28;20063;-50
2022/05/25 00:20:31;;;;;;;12.27;7.28;;;;;;;;;;5053467;28;20045;-50
2022/05/25 00:22:58;;;;;;;12.85;7.50;;;;;;;;;;5044906;28;20037;-50
2022/05/25 00:25:30;;;;;;;10.35;7.90;;;21.40;99.90;;;;;;5041195;28;20052;-51
2022/05/25 00:27:57;;;;;;;8.40;7.38;;;21.40;99.90;;;;;;5037316;28;20057;-50
2022/05/25 00:30:24;;;;;;;15.05;7.70;;;21.40;99.90;;;;;;5037648;28;20076;-50
2022/05/25 00:32:50;;;;;;;9.85;7.47;;;21.10;99.90;;;;;;5044610;28;20037;-50
2022/05/25 00:35:18;;;;;;;14.35;6.97;;;21.10;99.90;;;;;;5037214;28;20044;-50
2022/05/25 00:37:45;;;;;;;11.77;7.93;;;21.30;99.90;;;;;;5039626;28;20445;-51
2022/05/25 00:40:13;;;;;;;8.43;7.40;;;21.40;99.90;;;;;;5046131;28;20086;-50
2022/05/25 00:42:39;;;;;;;12.55;9.85;;;21.50;99.90;;;;;;5035499;28;20030;-50
2022/05/25 00:45:06;;;;;;;13.70;8.07;;;21.50;99.90;;;;;;5036077;28;20040;-50
2022/05/25 00:47:34;;;;;;;9.38;7.40;;;21.70;99.90;;;;;;5045073;28;20025;-50
2022/05/25 00:50:00;;;;;;;12.70;7.53;;;21.60;99.90;;;;;;5043493;28;20029;-50
2022/05/25 00:52:27;;;;;;;9.15;8.10;;;21.60;99.90;;;;;;5039293;28;20040;-50
2022/05/25 00:55:01;;;;;;;12.82;7.88;;;21.60;99.90;;;;;;5037302;28;20046;-50
2022/05/25 00:57:38;;;;;;;11.70;7.10;;;21.20;99.90;;;;;;5037994;28;20044;-50
2022/05/25 01:00:07;;;;;;;13.57;7.80;;;21.30;99.90;;;;;;5041720;28;20420;-51
2022/05/25 01:02:38;;;;;;;8.45;7.47;;;;;;;;;;5048062;28;20033;-50
2022/05/25 01:05:05;;;;;;;9.10;6.95;;;21.10;99.90;;;;;;5040180;28;20048;-51
2022/05/25 01:07:59;;;;;;;12.23;7.78;;;21.20;99.90;;;;;;5007315;28;20041;-50
2022/05/25 01:10:53;;;;;;;9.25;7.75;;;21.10;99.90;;;;;;5042449;28;20056;-50
2022/05/25 01:13:43;;;;;;;13.00;8.38;;;20.90;99.90;;;;;;5036146;28;20485;-50
2022/05/25 01:16:13;;;;;;;11.32;8.40;;;20.80;99.90;;;;;;5057911;28;20050;-50
2022/05/25 01:18:48;;;;;;;15.02;8.70;;;20.90;99.90;;;;;;5034064;28;20130;-50
2022/05/25 01:21:31;;;;;;;10.27;8.23;;;20.90;99.90;;;;;;5036580;28;20396;-50
2022/05/25 01:24:11;;;;;;;11.75;8.65;;;;;;;;;;5031728;28;20056;-50
2022/05/25 01:27:07;;;;;;;12.50;9.20;;;20.60;99.90;;;;;;5040743;28;20033;-50
2022/05/25 01:29:45;;;;;;;11.70;8.98;;;20.60;99.90;;;;;;5046028;28;20104;-50
2022/05/25 01:32:32;;;;;;;12.27;9.65;;;20.50;99.90;;;;;;5034681;28;20446;-50
2022/05/25 01:35:47;;;;;;;14.93;10.63;;;20.60;99.90;;;;;;5038444;28;20029;-50
2022/05/25 01:38:25;;;;;;;12.48;9.32;;;20.60;99.90;;;;;;5018695;28;20041;-50
2022/05/25 01:41:06;;;;;;;11.30;9.20;;;20.60;99.90;;;;;;5011936;28;20029;-50
2022/05/25 01:43:58;;;;;;;10.95;9.30;;;20.60;99.90;;;;;;5016137;28;20564;-51
2022/05/25 01:46:27;;;;;;;12.38;9.77;;;;;;;;;;5012699;28;20057;-50
2022/05/25 01:48:54;;;;;;;17.05;9.73;;;;;;;;;;5013029;28;20125;-50
2022/05/25 01:51:27;;;;;;;13.77;10.15;;;20.30;99.90;;;;;;5018490;28;20036;-50
2022/05/25 01:53:59;;;;;;;12.93;10.70;;;20.30;99.90;;;;;;5018007;28;20490;-50
2022/05/25 01:56:28;;;;;;;11.52;10.30;;;20.30;99.90;;;;;;5014630;28;20136;-50
2022/05/25 01:58:56;;;;;;;13.85;10.13;;;;;;;;;;5021199;28;20521;-50
2022/05/25 02:01:23;;;;;;;12.35;10.30;;;;;;;;;;5017997;28;20085;-50
2022/05/25 02:06:48;;;;;;;12.80;10.52;;;19.70;99.90;;;;;;5013955;28;20036;-52
2022/05/25 02:09:44;;;;;;;15.98;11.40;;;19.50;99.90;;;;;;5018008;28;20040;-50
2022/05/25 02:12:18;;;;;;;12.77;10.65;;;19.40;99.90;;;;;;5009196;28;20076;-50
2022/05/25 02:15:04;;;;;;;12.13;10.93;;;;;;;;;;5034007;28;20040;-50
2022/05/25 02:17:49;;;;;;;14.77;11.65;;;19.30;99.90;;;;;;5045719;28;20124;-50
2022/05/25 02:20:38;;;;;;;17.55;12.30;;;19.20;99.90;;;;;;5038992;28;20036;-50
2022/05/25 02:23:25;;;;;;;14.55;11.85;;;19.10;99.90;;;;;;5032902;28;20056;-50
2022/05/25 02:26:06;;;;;;;14.20;11.25;;;19.10;99.90;;;;;;5044382;28;20033;-50
2022/05/25 02:28:37;;;;;;;18.48;11.77;;;19.10;99.90;;;;;;5036710;28;20037;-50
2022/05/25 02:31:05;;;;;;;17.85;12.02;;;;;;;;;;5039588;28;20037;-50
2022/05/25 02:33:32;;;;;;;21.45;13.38;;;;;;;;;;5037449;28;20038;-50
2022/05/25 02:35:59;;;;;;;27.25;13.50;;;;;;;;;;5036240;28;20040;-51
2022/05/25 02:38:25;;;;;;;15.32;12.10;;;;;;;;;;5058027;28;20040;-50
2022/05/25 02:41:02;;;;;;;20.80;14.13;;;;;;;;;;5036251;28;20065;-50
2022/05/25 02:43:28;;;;;;;19.27;13.20;;;;;;;;;;5025403;28;20491;-51
2022/05/25 02:45:54;;;;;;;19.30;13.50;;;;;;;;;;5039842;28;20112;-50
2022/05/25 02:48:20;;;;;;;17.15;13.30;;;;;;;;;;5037114;28;20026;-50
2022/05/25 02:50:46;;;;;;;18.55;13.20;;;;;;;;;;5045055;28;20124;-50
2022/05/25 02:53:12;;;;;;;18.70;13.07;;;18.50;99.90;;;;;;5035001;28;20018;-50
2022/05/25 02:55:38;;;;;;;18.45;12.73;;;18.40;99.90;;;;;;5036501;28;20358;-50
2022/05/25 02:58:04;;;;;;;17.60;12.93;;;18.40;99.90;;;;;;5041138;28;20041;-50
2022/05/25 03:00:30;;;;;;;18.08;12.60;;;18.40;99.90;;;;;;5045335;28;20033;-50
2022/05/25 03:02:56;;;;;;;19.27;12.68;;;18.50;99.90;;;;;;5017896;28;20054;-51
2022/05/25 03:05:23;;;;;;;16.40;12.68;;;18.60;99.90;;;;;;5041094;28;20477;-50
2022/05/25 03:07:49;;;;;;;15.00;12.20;;;18.90;99.90;;;;;;5042290;28;20030;-50
2022/05/25 03:10:15;;;;;;;16.25;12.93;;;19.00;99.90;;;;;;5046038;28;20112;-50
2022/05/25 03:12:42;;;;;;;16.65;11.98;;;19.10;99.90;;;;;;5041834;28;20101;-50
2022/05/25 03:15:07;;;;;;;14.45;11.68;;;19.00;99.90;;;;;;5045123;28;20036;-51
2022/05/25 03:17:33;;;;;;;16.83;12.75;;;18.80;99.90;;;;;;5047083;28;20553;-50
2022/05/25 03:20:00;;;;;;;15.30;12.13;;;18.80;99.90;;;;;;5043684;28;20461;-50
2022/05/25 03:22:26;;;;;;;14.13;10.63;;;18.90;99.90;;;;;;5040617;28;20048;-50
2022/05/25 03:24:52;;;;;;;15.25;10.90;;;19.20;99.90;;;;;;5045485;28;20384;-50
2022/05/25 03:27:18;;;;;;;19.25;13.35;;;19.30;99.90;;;;;;5045678;28;20045;-50
2022/05/25 03:29:44;;;;;;;19.45;12.73;;;19.50;99.90;;;;;;5026755;28;20110;-50
2022/05/25 03:32:11;;;;;;;15.15;11.43;;;19.70;99.90;;;;;;5035754;28;20036;-50
2022/05/25 03:34:36;;;;;;;17.80;13.10;;;19.80;99.90;;;;;;5038200;28;20041;-50
2022/05/25 03:37:02;;;;;;;18.23;13.38;;;19.90;99.90;;;;;;5061751;28;20531;-50
2022/05/25 03:39:28;;;;;;;18.80;11.38;;;19.90;99.90;;;;;;5001118;28;20061;-52
2022/05/25 03:42:00;;;;;;;17.65;12.75;;;20.10;99.90;;;;;;5019771;28;20084;-50
2022/05/25 03:44:26;;;;;;;;;;;20.20;99.90;;;;;;5034854;28;20065;-50
2022/05/25 03:46:53;;;;;;;14.52;11.75;;;20.20;99.90;;;;;;5044544;28;19943;-51
2022/05/25 03:49:19;;;;;;;16.02;11.23;;;20.20;99.90;;;;;;5042025;28;20130;-51
2022/05/25 03:51:45;;;;;;;18.00;11.68;;;20.10;99.90;;;;;;5045809;28;20040;-50
2022/05/25 03:54:11;;;;;;;15.80;11.27;;;20.10;99.90;;;;;;5036564;28;20044;-50
2022/05/25 03:56:38;;;;;;;17.60;10.70;;;20.30;99.90;;;;;;5038497;28;20120;-50
2022/05/25 03:59:04;;;;;;;15.63;11.02;;;20.30;99.90;;;;;;5026277;28;20060;-51
2022/05/25 04:01:33;;;;;;;15.43;11.45;;;20.40;99.90;;;;;;5041737;28;20636;-51
2022/05/25 04:04:00;;;;;;;16.92;10.75;;;20.20;99.90;;;;;;5033146;28;20099;-50
2022/05/25 04:06:26;;;;;;;17.50;11.18;;;20.00;99.90;;;;;;5043343;28;20026;-50
2022/05/25 04:08:52;;;;;;;16.75;10.43;;;20.10;99.90;;;;;;5060464;28;20036;-50
2022/05/25 04:11:18;;;;;;;12.95;10.00;;;20.20;99.90;;;;;;5033124;28;20501;-50
2022/05/25 04:13:44;;;;;;;16.35;11.40;;;20.00;99.90;;;;;;5039853;28;20039;-50
2022/05/25 04:16:09;;;;;;;15.73;10.73;;;20.20;99.90;;;;;;5038042;28;20044;-52
2022/05/25 04:18:36;;;;;;;13.25;10.25;;;20.40;99.90;;;;;;5035300;28;20033;-51
2022/05/25 04:21:01;;;;;;;20.02;11.55;;;20.30;99.90;;;;;;5041904;28;20412;-50
2022/05/25 04:23:28;;;;;;;15.35;11.13;;;20.50;99.90;;;;;;5040586;28;20049;-50
2022/05/25 04:25:54;;;;;;;15.32;11.05;;;20.60;99.90;;;;;;5047776;28;20566;-50
2022/05/25 04:28:20;;;;;;;15.18;11.30;;;20.80;99.90;;;;;;5038539;28;20033;-50
2022/05/25 04:30:46;;;;;;;18.20;12.07;;;20.90;99.90;;;;;;5044812;28;20477;-50
2022/05/25 04:33:13;;;;;;;16.00;10.70;;;21.10;99.90;;;;;;5051476;28;20094;-50
2022/05/25 04:35:41;;;;;;;11.98;9.73;;;21.00;99.90;;;;;;5003347;28;20057;-50
2022/05/25 04:38:07;;;;;;;12.82;9.27;;;21.00;99.90;;;;;;5055033;28;20037;-50
2022/05/25 04:40:40;;;;;;;16.38;10.43;;;21.20;99.90;;;;;;5032931;28;20056;-50
2022/05/25 04:43:10;;;;;;;18.92;10.50;;;21.40;99.90;;;;;;5033026;28;20122;-50
2022/05/25 04:45:41;;;;;;;12.68;10.18;;;21.30;99.90;;;;;;5033625;28;20461;-50
2022/05/25 04:48:07;;;;;;;16.92;11.52;;;21.30;99.90;;;;;;5038127;28;20209;-50
2022/05/25 04:50:36;;;;;;;15.40;11.75;;;21.00;99.90;;;;;;5031920;28;20025;-50
2022/05/25 04:53:03;;;;;;;14.25;11.82;;;21.00;99.90;;;;;;5047948;28;20068;-50
2022/05/25 04:58:22;;;;;;;13.38;10.63;;;20.80;99.90;;;;;;5035114;28;20107;-50
2022/05/25 05:00:48;;;;;;;16.60;10.75;;;20.70;99.90;;;;;;5048648;28;20036;-52
2022/05/25 05:03:14;;;;;;;15.30;10.13;;;20.80;99.90;;;;;;5034555;28;20033;-50
2022/05/25 05:05:40;;;;;;;13.50;10.68;;;20.90;99.90;;;;;;4995993;28;20038;-52
2022/05/25 05:08:07;;;;;;;17.05;11.45;;;21.20;99.90;;;;;;5038005;28;20469;-50
2022/05/25 05:10:34;;;;;;;13.77;10.65;;;21.40;99.90;;;;;;5023240;28;20076;-51
2022/05/25 05:13:04;;;;;;;14.60;10.13;;;21.50;99.90;;;;;;5022619;28;20037;-50
2022/05/25 05:15:32;;;;;;;17.52;10.77;;;21.90;99.90;;;;;;5048087;28;20041;-50
2022/05/25 05:17:58;;;;;;;14.15;10.80;;;;;;;;;;5036315;28;20032;-50
2022/05/25 05:20:24;;;;;;;16.38;11.30;;;22.30;99.90;;;;;;5035865;28;20040;-50
2022/05/25 05:22:50;;;;;;;12.93;10.25;;;22.50;99.90;;;;;;5046027;28;20041;-51
2022/05/25 05:25:15;;;;;;;15.82;10.23;;;22.70;99.90;;;;;;5041486;28;20102;-50
2022/05/25 05:27:41;;;;;;;14.20;9.55;;;23.00;99.90;;;;;;5009899;28;20045;-50
2022/05/25 05:30:10;;;;;;;14.68;11.02;;;22.90;99.90;;;;;;5037904;28;20030;-50
2022/05/25 05:32:36;;;;;;;11.52;9.70;;;23.00;99.90;;;;;;5050820;28;20041;-51
2022/05/25 05:35:03;;;;;;;15.02;9.38;;;;;;;;;;5034262;28;20612;-51
2022/05/25 05:37:50;;;;;;;15.07;9.82;;;;;;;;;;5037065;28;20461;-48
2022/05/25 05:40:16;;;;;;;15.50;9.50;;;;;;;;;;5033279;28;20112;-48
2022/05/25 05:42:45;;;;;;;14.20;12.13;;;23.80;99.90;;;;;;5040595;28;20050;-48
2022/05/25 05:45:25;;;;;;;14.20;8.02;;;24.40;99.90;;;;;;5035047;28;20049;-49
2022/05/25 05:47:55;;;;;;;16.45;8.10;;;;;;;;;;5050377;28;20041;-49
2022/05/25 05:50:23;;;;;;;17.10;8.30;;;24.40;99.90;;;;;;5038735;28;20053;-49
2022/05/25 05:52:50;;;;;;;12.10;7.82;;;24.50;99.90;;;;;;5042284;28;20040;-48
2022/05/25 05:55:17;;;;;;;19.15;6.78;;;24.60;99.90;;;;;;5048351;28;20033;-49
2022/05/25 05:57:43;;;;;;;13.80;6.75;;;24.70;99.90;;;;;;5040916;28;20428;-49
2022/05/25 06:00:10;;;;;;;14.77;6.57;;;24.80;99.90;;;;;;5032266;28;20036;-49
2022/05/25 06:02:36;;;;;;;9.90;5.80;;;24.70;99.90;;;;;;4995820;28;20045;-49
2022/05/25 06:05:02;;;;;;;17.60;7.30;;;24.70;99.90;;;;;;5030173;28;20056;-49
2022/05/25 06:07:28;;;;;;;11.30;6.80;;;24.80;99.90;;;;;;5030863;28;20484;-48
2022/05/25 06:09:56;;;;;;;13.77;7.78;;;24.90;99.90;;;;;;5029994;28;20042;-47
2022/05/25 06:12:22;;;;;;;11.70;7.00;;;25.00;99.90;;;;;;5030852;28;20483;-49
2022/05/25 06:14:49;;;;;;;16.65;7.93;;;;;;;;;;5033980;28;20033;-49
2022/05/25 06:19:59;;;;;;;11.00;6.97;;;;;;;;;;5031680;28;20389;-49
2022/05/25 06:22:26;;;;;;;15.70;8.60;;;;;;;;;;5027917;28;20132;-49
2022/05/25 06:24:53;;;;;;;12.52;7.57;;;;;;;;;;5027705;28;20053;-48
2022/05/25 06:27:20;;;;;;;12.75;6.90;;;;;;;;;;5029265;28;20080;-49
2022/05/25 06:29:47;;;;;;;12.15;6.53;;;;;;;;;;5035332;28;20044;-49
2022/05/25 06:32:14;;;;;;;10.63;6.45;;;;;;;;;;5034587;28;20038;-53
2022/05/25 06:34:42;;;;;;;13.38;7.13;;;;;;;;;;5034652;28;20107;-54
2022/05/25 06:37:13;;;;;;;18.10;7.53;;;;;;;;;;5033513;28;20037;-52
2022/05/25 06:39:39;;;;;;;11.95;7.20;;;;;;;;;;5039772;28;20045;-57
2022/05/25 06:42:06;;;;;;;13.10;7.20;;;;;;;;;;5044589;28;20045;-49
2022/05/25 06:44:33;;;;;;;11.57;7.13;;;;;;;;;;5044158;28;20026;-57
2022/05/25 06:46:59;;;;;;;10.02;7.38;;;;;;;;;;5056358;28;20041;-53
2022/05/25 06:49:25;;;;;;;14.50;7.90;;;;;;;;;;5044074;28;20427;-62
2022/05/25 06:51:51;;;;;;;10.48;7.50;;;;;;;;;;5046555;28;20365;-57
2022/05/25 06:54:19;;;;;;;18.50;7.80;;;;;;;;;;5037472;28;20060;-54
2022/05/25 06:56:45;;;;;;;14.80;8.45;;;;;;;;;;5038949;28;20048;-60
2022/05/25 06:59:11;;;;;;;12.40;7.80;;;26.10;99.90;;;;;;5038937;28;20041;-50
2022/05/25 07:01:39;;;;;;;10.65;7.55;;;26.20;99.90;;;;;;5036320;28;20413;-50
2022/05/25 07:04:06;;;;;;;10.13;7.43;;;26.10;99.90;;;;;;5045820;28;20096;-50
2022/05/25 07:06:32;;;;;;;14.75;8.20;;;;;;;;;;5040346;28;20037;-52
2022/05/25 07:08:58;;;;;;;19.35;9.48;;;26.40;99.90;;;;;;5035893;28;20469;-53
2022/05/25 07:11:24;;;;;;;25.08;11.65;;;;;;;;;;5000901;28;20048;-50
2022/05/25 07:13:51;;;;;;;13.57;7.47;;;;;;;;;;5055674;28;20428;-51
2022/05/25 07:16:20;;;;;;;16.50;8.18;;;26.70;99.90;;;;;;5043243;28;21261;-53
2022/05/25 07:18:47;;;;;;;15.05;8.82;;;26.90;99.90;;;;;;5047068;28;20734;-50
2022/05/25 07:21:15;;;;;;;13.63;7.60;;;;;;;;;;5054040;28;20037;-51
2022/05/25 07:23:42;;;;;;;21.85;9.27;;;;;;;;;;5041424;28;20049;-52
2022/05/25 07:26:09;;;;;;;14.35;7.90;;;;;;;;;;5046207;28;20025;-49
2022/05/25 07:28:36;;;;;;;13.93;7.80;;;27.10;99.90;;;;;;5037861;28;20375;-48
2022/05/25 07:31:28;;;;;;;16.65;8.25;;;;;;;;;;5043783;28;20067;-49
2022/05/25 07:34:00;;;;;;;15.43;6.65;;;;;;;;;;5035141;28;20041;-56
2022/05/25 07:36:27;;;;;;;13.10;6.57;;;;;;;;;;5036270;28;20029;-54
2022/05/25 07:38:53;;;;;;;19.30;7.13;;;;;;;;;;5035308;28;20094;-47
2022/05/25 07:41:20;;;;;;;10.68;6.65;;;;;;;;;;5034421;28;20096;-49
2022/05/25 07:43:47;;;;;;;13.95;7.25;;;;;;;;;;5041651;28;20489;-51
2022/05/25 07:46:13;;;;;;;10.55;7.28;;;;;;;;;;5032427;28;20033;-51
2022/05/25 07:48:39;;;;;;;18.00;8.10;;;;;;;;;;5034642;28;20026;-50
2022/05/25 07:51:06;;;;;;;11.85;7.15;;;;;;;;;;5035676;28;20032;-52
2022/05/25 07:56:17;;;;;;;18.63;8.95;;;;;;;;;;5041633;28;20193;-51
2022/05/25 07:58:43;;;;;;;14.80;7.40;;;;;;;;;;5045165;28;20029;-49
2022/05/25 08:01:11;;;;;;;14.95;6.82;;;;;;;;;;5062057;28;20072;-49
2022/05/25 08:06:33;;;;;;;12.43;6.50;;;;;;;;;;5042978;28;20495;-48
2022/05/25 08:09:00;;;;;;;13.18;6.43;;;;;;;;;;5062953;28;20060;-51
2022/05/25 08:11:25;;;;;;;9.27;5.85;;;28.90;99.90;;;;;;5050644;28;20068;-51
2022/05/25 08:13:55;;;;;;;12.13;6.50;;;28.90;99.90;;;;;;5030256;28;20069;-50
2022/05/25 08:16:21;;;;;;;9.88;5.53;;;29.00;99.90;;;;;;5062079;28;20045;-50
2022/05/25 08:18:47;;;;;;;14.88;6.63;;;28.90;99.90;;;;;;5055079;28;20102;-51
2022/05/25 08:21:13;;;;;;;13.35;6.47;;;29.10;99.90;;;;;;5054995;28;20025;-52
2022/05/25 08:23:39;;;;;;;10.77;7.13;;;29.10;99.90;;;;;;5052607;28;20040;-50
2022/05/25 08:26:05;;;;;;;19.05;7.43;;;;;;;;;;5050846;28;20549;-52
2022/05/25 08:28:31;;;;;;;10.50;6.47;;;;;;;;;;5052424;28;20501;-53
2022/05/25 08:30:57;;;;;;;15.23;6.28;;;30.80;99.90;;;;;;5059354;28;20548;-50
2022/05/25 08:33:23;;;;;;;14.85;6.40;;;30.00;99.90;;;;;;5053186;28;20040;-51
2022/05/25 08:35:49;;;;;;;11.65;6.70;;;30.20;99.90;;;;;;5027821;28;20091;-47
2022/05/25 08:38:16;;;;;;;14.43;6.28;;;;;;;;;;5055498;28;20048;-50
2022/05/25 08:40:43;;;;;;;12.10;6.43;;;;;;;;;;5062164;28;20037;-49
2022/05/25 08:43:20;;;;;;;13.25;7.00;;;;;;;;;;5040611;28;20048;-47
2022/05/25 08:45:49;;;;;;;12.95;6.82;;;;;;;;;;5036523;28;20071;-52
2022/05/25 08:48:16;;;;;;;11.48;6.53;;;;;;;;;;5048586;28;20053;-51
2022/05/25 08:50:43;;;;;;;17.75;6.47;;;;;;;;;;5040051;28;20076;-50
2022/05/25 08:53:11;;;;;;;14.15;6.63;;;;;;;;;;5060158;28;20392;-53
2022/05/25 08:55:43;;;;;;;14.85;6.45;;;;;;;;;;5063621;28;20052;-53
2022/05/25 08:58:11;;;;;;;10.82;5.47;;;;;;;;;;5055627;28;20119;-50
2022/05/25 09:00:38;;;;;;;11.40;6.00;;;;;;;;;;5039094;28;20021;-49
2022/05/25 09:03:04;;;;;;;13.43;5.88;;;;;;;;;;5042993;28;20041;-51
2022/05/25 09:05:32;;;;;;;13.73;6.10;;;;;;;;;;5042145;28;20026;-47
2022/05/25 09:08:07;;;;;;;9.80;6.00;;;;;;;;;;5040779;28;20116;-49
2022/05/25 09:10:37;;;;;;;15.07;5.90;;;;;;;;;;5037514;28;20025;-53
2022/05/25 09:13:27;;;;;;;10.45;6.25;;;;;;;;;;5038283;28;20037;-53
2022/05/25 09:18:45;;;;;;;11.10;5.07;;;;;;;;;;5043223;28;20507;-50
2022/05/25 09:21:11;;;;;;;;;;;;;;;;;;5034826;28;20025;-49
2022/05/25 09:23:37;;;;;;;18.88;6.07;;;;;;;;;;5049697;28;19917;-51
2022/05/25 09:26:03;;;;;;;12.48;5.38;;;;;;;;;;5040021;28;20447;-51
2022/05/25 09:28:37;;;;;;;15.57;6.15;;;;;;;;;;5061579;28;20460;-49
2022/05/25 09:31:04;;;;;;;11.75;5.43;;;;;;;;;;5036367;28;20026;-52
2022/05/25 09:33:40;;;;;;;11.05;5.53;;;;;;;;;;5055010;28;20413;-53
2022/05/25 09:36:14;;;;;;;10.93;5.72;;;;;;;;;;5043979;28;20078;-50
2022/05/25 09:38:43;;;;;;;10.75;5.50;;;;;;;;;;5035463;28;20029;-51
2022/05/25 09:41:20;;;;;;;11.18;4.78;;;;;;;;;;5033898;28;20434;-48
2022/05/25 09:43:46;;;;;;;9.48;5.03;;;;;;;;;;5048388;28;20057;-51
2022/05/25 09:46:19;;;;;;;8.13;4.60;;;;;;;;;;5036691;28;20103;-49
2022/05/25 09:48:50;;;;;;;12.48;5.88;;;;;;;;;;5044221;28;20033;-48
2022/05/25 09:51:26;;;;;;;10.98;4.95;;;;;;;;;;5038007;28;20022;-53
2022/05/25 09:53:56;;;;;;;7.18;4.75;;;31.80;99.90;;;;;;5037851;28;20061;-52
2022/05/25 09:56:24;;;;;;;12.43;5.45;;;;;;;;;;5063023;28;20037;-49
2022/05/25 09:58:54;;;;;;;13.63;4.95;;;32.60;99.90;;;;;;5043266;28;20029;-51
2022/05/25 10:01:43;;;;;;;10.38;5.18;;;32.70;99.90;;;;;;5013883;28;20034;-48
2022/05/25 10:04:11;;;;;;;14.02;5.22;;;;;;;;;;5036052;28;20385;-52
2022/05/25 10:06:50;;;;;;;13.43;5.28;;;32.70;99.90;;;;;;5037517;28;20034;-51
2022/05/25 10:09:25;;;;;;;9.20;4.45;;;33.30;95.80;;;;;;5046532;28;20104;-50
2022/05/25 10:11:55;;;;;;;12.10;4.80;;;33.40;94.20;;;;;;5046518;28;20041;-50
2022/05/25 10:14:29;;;;;;;8.48;4.88;;;33.70;92.80;;;;;;5039961;28;20034;-51
2022/05/25 10:17:08;;;;;;;13.52;4.60;;;34.10;98.20;;;;;;5026624;28;20455;-50
2022/05/25 10:19:44;;;;;;;12.43;4.55;;;34.10;96.30;;;;;;5028864;28;20053;-50
2022/05/25 10:22:42;;;;;;;11.57;4.60;;;34.10;93.00;;;;;;5042014;28;20046;-50
2022/05/25 10:25:43;;;;;;;14.38;5.20;;;33.90;94.00;;;;;;5048057;28;20055;-51
2022/05/25 10:28:25;;;;;;;10.27;4.88;;;34.30;92.70;;;;;;5033081;28;20044;-53
2022/05/25 10:37:02;;;;;;;9.50;4.82;;;34.20;92.90;;;;;;4994346;28;20064;-47
2022/05/25 10:39:28;;;;;;;18.08;6.55;;;34.10;92.30;;;;;;4993441;28;20046;-49
2022/05/25 10:42:11;;;;;;;16.00;6.25;;;34.00;92.60;;;;;;4989228;28;20049;-54
2022/05/25 10:44:58;;;;;;;13.52;5.40;;;34.10;91.70;;;;;;4992816;28;20800;-55
2022/05/25 10:47:43;;;;;;;10.45;4.90;;;34.10;91.90;;;;;;4990982;28;20140;-51
2022/05/25 10:50:16;;;;;;;14.10;4.70;;;;;;;;;;4992630;28;20027;-52
2022/05/25 10:52:48;;;;;;;14.48;5.20;;;34.80;99.90;;;;;;4993302;28;20581;-52
2022/05/25 10:55:14;;;;;;;12.40;4.53;;;35.10;94.70;;;;;;4994046;28;20030;-52
2022/05/25 10:57:44;;;;;;;12.55;4.90;;;35.00;91.20;;;;;;4994625;28;20822;-53
2022/05/25 11:00:18;;;;;;;17.73;6.32;;;35.20;98.00;;;;;;4991107;28;20042;-51
2022/05/25 11:02:55;;;;;;;11.30;4.03;;;35.10;94.10;;;;;;4985501;28;20042;-52
2022/05/25 11:05:40;;;;;;;13.20;4.75;;;34.60;91.10;;;;;;4983829;28;20038;-51
2022/05/25 11:08:33;;;;;;;11.95;5.07;;;34.40;91.20;;;;;;4985815;28;20031;-52
2022/05/25 11:11:10;;;;;;;11.90;5.15;;;34.60;90.60;;;;;;5003728;28;20060;-51
2022/05/25 11:14:08;;;;;;;11.55;4.43;;;35.00;91.10;;;;;;5031380;28;20083;-53
2022/05/25 11:16:50;;;;;;;7.47;4.68;;;35.20;91.10;;;;;;5033575;28;20171;-51
2022/05/25 11:19:34;;;;;;;11.63;4.65;;;35.00;91.30;;;;;;5033866;28;20030;-51
2022/05/25 11:22:06;;;;;;;11.23;4.72;;;;;;;;;;5044449;28;20527;-52
2022/05/25 11:24:44;;;;;;;7.82;4.65;;;35.60;89.00;;;;;;5053502;28;20055;-58
2022/05/25 11:27:22;;;;;;;9.48;4.63;;;35.20;89.00;;;;;;5043196;28;20044;-54
2022/05/25 11:29:48;;;;;;;10.85;4.95;;;;;;;;;;5001643;28;20036;-54
2022/05/25 11:32:38;;;;;;;9.25;4.82;;;35.80;88.90;;;;;;5052828;28;20025;-53
2022/05/25 11:35:17;;;;;;;8.55;4.70;;;36.10;87.80;;;;;;5043414;28;20044;-51
2022/05/25 11:38:04;;;;;;;9.00;4.68;;;36.00;88.90;;;;;;5027988;28;20098;-49
2022/05/25 11:40:53;;;;;;;14.02;5.50;;;35.80;88.60;;;;;;5048184;28;20041;-53
2022/05/25 11:43:52;;;;;;;17.55;4.68;;;35.80;88.30;;;;;;5050901;28;20033;-53
2022/05/25 11:46:41;;;;;;;13.52;5.00;;;35.80;88.40;;;;;;5047742;28;20033;-50
2022/05/25 11:49:29;;;;;;;11.85;4.45;;;36.10;88.10;;;;;;5001505;28;20080;-51
2022/05/25 11:52:26;;;;;;;9.20;4.57;;;36.10;87.30;;;;;;5046623;28;20033;-52
2022/05/25 11:55:20;;;;;;;14.10;4.47;;;35.80;86.50;;;;;;4987064;28;20062;-50
2022/05/25 11:57:49;;;;;;;8.15;4.13;;;36.30;87.20;;;;;;4991793;28;20569;-51
2022/05/25 12:00:43;;;;;;;12.23;4.65;;;36.60;87.00;;;;;;4993551;28;20037;-55
2022/05/25 12:03:47;;;;;;;13.75;5.60;;;36.90;86.90;;;;;;4985483;28;20038;-48
2022/05/25 12:06:27;;;;;;;12.50;4.45;;;36.90;85.30;;;;;;4975740;28;20412;-52
2022/05/25 12:09:14;;;;;;;13.18;4.57;;;37.30;86.20;;;;;;4988931;28;20068;-53
2022/05/25 12:11:50;;;;;;;9.18;4.55;;;37.10;95.30;;;;;;4993603;28;20138;-50
2022/05/25 12:14:54;;;;;;;10.77;4.32;;;37.20;95.90;;;;;;4993552;28;20077;-55
2022/05/25 12:17:29;;;;;;;8.93;4.53;;;36.90;95.30;;;;;;4935184;29;20110;-48
2022/05/25 12:19:56;;;;;;;8.48;4.22;;;36.90;96.20;;;;;;4935401;29;20035;-46
2022/05/25 12:22:30;;;;;;;9.80;4.75;;;36.10;88.90;;;;;;4935262;29;20048;-47
2022/05/25 12:25:01;;;;;;;9.88;4.28;;;35.80;86.30;;;;;;4934589;29;20130;-53
2022/05/25 12:27:33;;;;;;;8.45;4.50;;;36.20;86.50;;;;;;4911962;29;20055;-47
2022/05/25 12:30:34;;;;;;;10.13;4.30;;;36.10;84.60;;;;;;4912991;29;20067;-48
2022/05/25 12:33:05;;;;;;;7.13;4.20;;;35.70;84.90;;;;;;4982322;28;20034;-48
2022/05/25 12:35:33;;;;;;;14.35;4.80;;;35.80;85.10;;;;;;5003719;28;20041;-48
2022/05/25 12:38:01;;;;;;;12.23;4.40;;;36.30;90.90;;;;;;4982771;28;20364;-48
2022/05/25 12:40:26;;;;;;;9.90;4.30;;;36.40;84.90;;;;;;4982477;28;20031;-47
2022/05/25 12:42:52;;;;;;;19.45;4.68;;;36.50;85.10;;;;;;4981845;28;20053;-47
2022/05/25 12:48:31;;;;;;;10.60;5.72;;;35.90;85.10;;;;;;4981108;28;20460;-46
2022/05/25 12:51:02;;;;;;;10.50;4.40;;;36.30;83.40;;;;;;4983869;28;20592;-48
2022/05/25 12:53:37;;;;;;;9.27;4.18;;;;;;;;;;4993890;28;20524;-47
2022/05/25 12:56:03;;;;;;;14.60;4.28;;;36.70;84.00;;;;;;5032336;28;20389;-47
2022/05/25 12:58:44;;;;;;;10.90;4.93;;;37.00;83.40;;;;;;5032479;28;20033;-48
2022/05/25 13:01:22;;;;;;;11.32;3.92;;;37.10;82.60;;;;;;5027514;28;20030;-49
2022/05/25 13:03:47;;;;;;;10.98;4.32;;;37.00;81.60;;;;;;5028946;28;20041;-47
2022/05/25 13:06:37;;;;;;;9.10;4.05;;;37.30;81.90;;;;;;5032016;28;20021;-47
2022/05/25 13:09:07;;;;;;;9.40;4.32;;;;;;;;;;5009580;28;20045;-47
2022/05/25 13:11:50;;;;;;;10.98;4.43;;;35.80;82.70;;;;;;5009735;28;20080;-47
2022/05/25 13:14:25;;;;;;;12.05;4.60;;;36.00;82.80;;;;;;5008519;28;20034;-47
2022/05/25 13:16:58;;;;;;;14.98;4.25;;;36.10;83.70;;;;;;5006647;28;20102;-50
2022/05/25 13:19:32;;;;;;;11.38;4.40;;;36.10;85.10;;;;;;5007443;28;21319;-46
2022/05/25 13:22:02;;;;;;;10.70;4.38;;;36.10;82.90;;;;;;4976390;28;20060;-50
2022/05/25 13:25:05;;;;;;;13.13;4.45;;;35.80;82.80;;;;;;5008410;28;20046;-50
2022/05/25 13:27:46;;;;;;;13.32;4.43;;;36.40;83.10;;;;;;5006846;28;20041;-51
2022/05/25 13:30:44;;;;;;;15.48;5.13;;;36.70;82.70;;;;;;5008442;28;20075;-53
2022/05/25 13:33:19;;;;;;;12.23;4.25;;;36.50;83.10;;;;;;5008486;28;20037;-53
2022/05/25 13:35:56;;;;;;;14.05;4.78;;;36.70;83.50;;;;;;4989965;28;20045;-52
2022/05/25 13:38:31;;;;;;;12.25;4.53;;;;;;;;;;5006048;28;20136;-55
2022/05/25 13:41:39;;;;;;;13.50;5.07;;;37.40;83.00;;;;;;4994322;28;20044;-52
2022/05/25 13:44:12;;;;;;;15.35;4.40;;;37.10;81.50;;;;;;4968708;28;20038;-52
2022/05/25 13:46:57;;;;;;;12.73;4.40;;;37.20;81.10;;;;;;4916451;28;20145;-52
2022/05/25 13:49:33;;;;;;;8.52;4.43;;;37.00;82.70;;;;;;4989390;28;20501;-54
2022/05/25 13:52:25;;;;;;;10.77;4.03;;;36.90;81.30;;;;;;4988951;28;20034;-50
2022/05/25 13:55:04;;;;;;;12.73;4.35;;;36.80;82.70;;;;;;4989879;28;20100;-54
2022/05/25 13:57:35;;;;;;;11.15;5.10;;;36.50;82.10;;;;;;4986554;28;20033;-49
2022/05/25 14:00:22;;;;;;;11.38;4.47;;;36.50;83.20;;;;;;4988151;28;20045;-50